createdAt,value
2023-04-18T00:02:23.255Z,103037.59
2023-04-18T00:04:50.543Z,103043.78
2023-04-18T00:07:17.682Z,103046.44
2023-04-18T00:09:44.663Z,103033.47
2023-04-18T00:12:11.669Z,103035.28
2023-04-18T00:14:38.456Z,103037.28
2023-04-18T00:17:09.481Z,103037.19
2023-04-18T00:19:43.262Z,103037.41
2023-04-18T00:22:11.376Z,103033.97
2023-04-18T00:24:37.990Z,103027.06
2023-04-18T00:27:04.562Z,103033.22
2023-04-18T00:29:31.857Z,103029.94
2023-04-18T00:31:58.479Z,103034.22
2023-04-18T00:34:25.011Z,103035.38
2023-04-18T00:36:51.595Z,103041.56
2023-04-18T00:39:18.168Z,103030.31
2023-04-18T00:41:44.726Z,103035.53
2023-04-18T00:44:11.468Z,103040.88
2023-04-18T00:46:38.169Z,103027.84
2023-04-18T00:49:05.003Z,103039.38
2023-04-18T00:51:32.586Z,103028.09
2023-04-18T00:53:59.350Z,103036.94
2023-04-18T00:56:26.709Z,103035.22
2023-04-18T00:58:53.670Z,103027.44
2023-04-18T01:01:20.256Z,103029.25
2023-04-18T01:03:46.977Z,103029.25
2023-04-18T01:06:13.848Z,103030.31
2023-04-18T01:08:42.028Z,103033.16
2023-04-18T01:11:08.628Z,103038.41
2023-04-18T01:13:35.318Z,103026.13
2023-04-18T01:16:01.927Z,103024.56
2023-04-18T01:18:31.521Z,103028.94
2023-04-18T01:21:00.486Z,103022.84
2023-04-18T01:23:27.160Z,103027.31
2023-04-18T01:25:53.673Z,103017.72
2023-04-18T01:28:23.616Z,103010.69
2023-04-18T01:30:50.180Z,103008.13
2023-04-18T01:33:16.792Z,103014.41
2023-04-18T01:35:43.371Z,103011.72
2023-04-18T01:38:09.958Z,103006.50
2023-04-18T01:40:36.501Z,103001.28
2023-04-18T01:43:03.037Z,103005.78
2023-04-18T01:45:29.622Z,103006.72
2023-04-18T01:47:56.176Z,103005.88
2023-04-18T01:50:23.003Z,103001.59
2023-04-18T01:52:49.571Z,102999.91
2023-04-18T01:55:16.111Z,103001.81
2023-04-18T01:57:42.773Z,103001.81
2023-04-18T02:00:09.892Z,103001.06
2023-04-18T02:02:36.576Z,103004.66
2023-04-18T02:05:03.304Z,103003.81
2023-04-18T02:07:29.966Z,103006.59
2023-04-18T02:09:56.686Z,103006.59
2023-04-18T02:12:23.311Z,103005.84
2023-04-18T02:14:56.433Z,103005.84
2023-04-18T02:17:23.674Z,103010.44
2023-04-18T02:19:51.640Z,103006.81
2023-04-18T02:22:18.657Z,103006.91
2023-04-18T02:24:45.511Z,103008.81
2023-04-18T02:27:12.154Z,103009.78
2023-04-18T02:29:38.749Z,103010.63
2023-04-18T02:32:05.712Z,103004.44
2023-04-18T02:34:33.780Z,103009.88
2023-04-18T02:37:00.598Z,103008.16
2023-04-18T02:39:27.268Z,103009.97
2023-04-18T02:41:53.862Z,103005.59
2023-04-18T02:44:20.481Z,103006.53
2023-04-18T02:46:47.104Z,103006.66
2023-04-18T02:49:13.660Z,103006.66
2023-04-18T02:51:40.207Z,103007.63
2023-04-18T02:54:06.729Z,103007.72
2023-04-18T02:56:33.498Z,103009.63
2023-04-18T02:59:00.135Z,103014.88
2023-04-18T03:01:26.777Z,103012.31
2023-04-18T03:03:53.721Z,103014.13
2023-04-18T03:06:20.260Z,103004.41
2023-04-18T03:08:46.805Z,103013.34
2023-04-18T03:11:13.326Z,103012.50
2023-04-18T03:13:39.865Z,103012.59
2023-04-18T03:16:06.970Z,103013.44
2023-04-18T03:18:33.535Z,103002.91
2023-04-18T03:21:00.068Z,103006.59
2023-04-18T03:23:26.623Z,103010.25
2023-04-18T03:25:53.211Z,103004.94
2023-04-18T03:28:19.776Z,103015.59
2023-04-18T03:30:46.368Z,103005.13
2023-04-18T03:33:14.501Z,103015.78
2023-04-18T03:35:41.072Z,103011.41
2023-04-18T03:38:07.756Z,103014.16
2023-04-18T03:40:34.392Z,103012.44
2023-04-18T03:43:00.980Z,103013.41
2023-04-18T03:45:27.692Z,103016.06
2023-04-18T03:47:54.310Z,103016.16
2023-04-18T03:50:20.954Z,103019.78
2023-04-18T03:52:47.509Z,103021.69
2023-04-18T03:55:14.092Z,103015.63
2023-04-18T03:57:41.408Z,103021.81
2023-04-18T04:00:08.751Z,103027.22
2023-04-18T04:02:35.454Z,103017.53
2023-04-18T04:05:02.747Z,103023.91
2023-04-18T04:07:29.398Z,103021.41
2023-04-18T04:09:56.001Z,103034.66
2023-04-18T04:12:22.577Z,103026.66
2023-04-18T04:14:49.157Z,103026.81
2023-04-18T04:17:15.938Z,103027.69
2023-04-18T04:19:42.514Z,103031.28
2023-04-18T04:22:09.369Z,103040.22
2023-04-18T04:24:38.423Z,103022.69
2023-04-18T04:27:05.328Z,103022.78
2023-04-18T04:29:31.869Z,103028.09
2023-04-18T04:31:59.588Z,103020.19
2023-04-18T04:34:26.797Z,103028.28
2023-04-18T04:36:54.609Z,103015.06
2023-04-18T04:39:21.240Z,103022.19
2023-04-18T04:41:48.921Z,103024.88
2023-04-18T04:44:18.273Z,103030.28
2023-04-18T04:46:44.928Z,103034.84
2023-04-18T04:49:11.937Z,103035.78
2023-04-18T04:51:38.566Z,103035.91
2023-04-18T04:54:05.339Z,103037.72
2023-04-18T04:56:32.284Z,103035.16
2023-04-18T04:58:58.821Z,103034.41
2023-04-18T05:01:25.732Z,103043.13
2023-04-18T05:03:52.797Z,103031.72
2023-04-18T05:06:20.864Z,103042.38
2023-04-18T05:08:48.204Z,103038.09
2023-04-18T05:11:15.428Z,103038.97
2023-04-18T05:13:41.993Z,103046.09
2023-04-18T05:16:08.740Z,103048.84
2023-04-18T05:18:39.072Z,103045.22
2023-04-18T05:21:06.086Z,103045.41
2023-04-18T05:23:34.836Z,103054.16
2023-04-18T05:26:01.409Z,103057.84
2023-04-18T05:28:27.974Z,103055.19
2023-04-18T05:31:01.165Z,103053.50
2023-04-18T05:33:29.192Z,103051.91
2023-04-18T05:35:57.550Z,103059.13
2023-04-18T05:38:24.323Z,103053.13
2023-04-18T05:40:55.920Z,103056.56
2023-04-18T05:43:23.258Z,103055.03
2023-04-18T05:45:52.319Z,103065.75
2023-04-18T05:48:19.381Z,103060.44
2023-04-18T05:50:46.206Z,103069.38
2023-04-18T05:53:12.872Z,103061.47
2023-04-18T05:55:41.049Z,103065.00
2023-04-18T05:58:07.844Z,103069.47
2023-04-18T06:00:34.833Z,103076.63
2023-04-18T06:03:01.519Z,103078.41
2023-04-18T06:05:28.802Z,103072.25
2023-04-18T06:07:55.691Z,103077.56
2023-04-18T06:10:22.279Z,103074.03
2023-04-18T06:12:48.858Z,103075.75
2023-04-18T06:15:15.363Z,103075.84
2023-04-18T06:17:41.978Z,103073.19
2023-04-18T06:20:10.332Z,103075.00
2023-04-18T06:22:36.902Z,103080.31
2023-04-18T06:25:03.710Z,103082.13
2023-04-18T06:27:31.975Z,103083.06
2023-04-18T06:29:58.781Z,103087.53
2023-04-18T06:32:25.477Z,103084.78
2023-04-18T06:34:53.070Z,103084.78
2023-04-18T06:37:20.132Z,103097.13
2023-04-18T06:39:46.818Z,103097.13
2023-04-18T06:42:13.436Z,103089.16
2023-04-18T06:44:40.038Z,103088.94
2023-04-18T06:47:06.602Z,103096.72
2023-04-18T06:49:33.156Z,103096.47
2023-04-18T06:51:59.718Z,103099.78
2023-04-18T06:54:26.313Z,103095.00
2023-04-18T06:56:53.696Z,103100.72
2023-04-18T06:59:21.592Z,103093.00
2023-04-18T07:01:48.982Z,103095.19
2023-04-18T07:04:15.750Z,103102.81
2023-04-18T07:06:43.188Z,103090.28
2023-04-18T07:09:09.701Z,103093.69
2023-04-18T07:11:36.261Z,103098.16
2023-04-18T07:14:02.818Z,103099.75
2023-04-18T07:16:29.429Z,103096.22
2023-04-18T07:18:56.112Z,103095.28
2023-04-18T07:21:23.847Z,103098.59
2023-04-18T07:23:50.465Z,103089.66
2023-04-18T07:26:17.024Z,103094.81
2023-04-18T07:28:43.578Z,103092.91
2023-04-18T07:31:11.609Z,103096.28
2023-04-18T07:33:38.685Z,103093.53
2023-04-18T07:36:05.739Z,103097.06
2023-04-18T07:38:34.715Z,103097.81
2023-04-18T07:41:02.229Z,103102.19
2023-04-18T07:43:28.855Z,103095.81
2023-04-18T07:45:55.883Z,103089.53
2023-04-18T07:48:22.790Z,103108.84
2023-04-18T07:50:49.579Z,103098.34
2023-04-18T07:53:16.782Z,103094.00
2023-04-18T07:55:43.526Z,103100.13
2023-04-18T07:58:10.198Z,103092.25
2023-04-18T08:00:39.262Z,103101.78
2023-04-18T08:03:07.739Z,103090.50
2023-04-18T08:05:34.804Z,103084.53
2023-04-18T08:08:01.569Z,103080.28
2023-04-18T08:10:28.348Z,103079.22
2023-04-18T08:12:55.037Z,103089.56
2023-04-18T08:15:21.609Z,103085.06
2023-04-18T08:17:49.220Z,103077.03
2023-04-18T08:20:16.002Z,103075.31
2023-04-18T08:22:57.711Z,103078.94
2023-04-18T08:25:29.256Z,103087.69
2023-04-18T08:27:55.951Z,103087.47
2023-04-18T08:30:22.559Z,103097.53
2023-04-18T08:32:49.814Z,103090.03
2023-04-18T08:35:16.582Z,103093.84
2023-04-18T08:37:43.510Z,103095.50
2023-04-18T08:40:10.282Z,103100.81
2023-04-18T08:42:40.060Z,103101.50
2023-04-18T08:45:07.592Z,103106.88
2023-04-18T08:47:35.473Z,103108.84
2023-04-18T08:50:02.220Z,103104.59
2023-04-18T08:52:30.982Z,103107.25
2023-04-18T08:54:57.652Z,103112.41
2023-04-18T08:57:27.405Z,103114.75
2023-04-18T08:59:55.362Z,103109.97
2023-04-18T09:02:35.172Z,103105.03
2023-04-18T09:05:11.023Z,103107.19
2023-04-18T09:07:37.552Z,103104.94
2023-04-18T09:10:04.400Z,103096.31
2023-04-18T09:12:32.619Z,103101.75
2023-04-18T09:15:16.694Z,103100.13
2023-04-18T09:17:52.538Z,103099.38
2023-04-18T09:20:44.606Z,103095.97
2023-04-18T09:23:16.276Z,103104.06
2023-04-18T09:25:49.198Z,103105.03
2023-04-18T09:28:29.794Z,103103.31
2023-04-18T09:30:58.699Z,103102.59
2023-04-18T09:33:33.273Z,103105.25
2023-04-18T09:36:20.719Z,103113.38
2023-04-18T09:38:49.122Z,103105.25
2023-04-18T09:41:19.892Z,103103.56
2023-04-18T09:43:48.290Z,103105.25
2023-04-18T09:46:17.599Z,103100.03
2023-04-18T09:48:44.345Z,103095.44
2023-04-18T09:51:15.744Z,103090.94
2023-04-18T09:53:51.071Z,103091.94
2023-04-18T09:56:28.367Z,103101.59
2023-04-18T09:59:11.701Z,103091.69
2023-04-18T10:01:41.266Z,103081.88
2023-04-18T10:04:09.231Z,103089.03
2023-04-18T10:06:42.103Z,103088.06
2023-04-18T10:09:10.204Z,103082.63
2023-04-18T10:11:37.145Z,103081.66
2023-04-18T10:14:08.396Z,103069.94
2023-04-18T10:16:36.450Z,103062.78
2023-04-18T10:19:26.150Z,103072.41
2023-04-18T10:21:57.670Z,103075.06
2023-04-18T10:24:49.691Z,103070.47
2023-04-18T10:27:18.066Z,103067.06
2023-04-18T10:29:51.211Z,103068.78
2023-04-18T10:32:23.457Z,103066.97
2023-04-18T10:34:53.419Z,103069.50
2023-04-18T10:37:20.291Z,103058.84
2023-04-18T10:40:17.755Z,103064.06
2023-04-18T10:42:47.157Z,103058.53
2023-04-18T10:45:24.609Z,103063.66
2023-04-18T10:48:11.382Z,103064.59
2023-04-18T10:51:14.190Z,103077.00
2023-04-18T10:53:48.445Z,103066.22
2023-04-18T10:56:15.799Z,103063.53
2023-04-18T10:58:49.213Z,103058.97
2023-04-18T11:01:18.748Z,103052.78
2023-04-18T11:03:46.016Z,103049.97
2023-04-18T11:06:12.712Z,103058.72
2023-04-18T11:08:39.618Z,103057.75
2023-04-18T11:11:09.426Z,103037.25
2023-04-18T11:13:36.897Z,103046.13
2023-04-18T11:16:03.994Z,103041.75
2023-04-18T11:18:41.316Z,103047.09
2023-04-18T11:21:07.942Z,103043.56
2023-04-18T11:23:34.551Z,103042.59
2023-04-18T11:26:01.155Z,103030.22
2023-04-18T11:28:28.512Z,103031.94
2023-04-18T11:30:58.420Z,103028.31
2023-04-18T11:33:30.135Z,103028.19
2023-04-18T11:35:58.697Z,103017.53
2023-04-18T11:38:33.823Z,103027.25
2023-04-18T11:41:02.728Z,103020.94
2023-04-18T11:43:29.263Z,103025.41
2023-04-18T11:45:59.654Z,103027.13
2023-04-18T11:48:42.374Z,103028.00
2023-04-18T11:51:36.017Z,103024.34
2023-04-18T11:54:02.684Z,103030.66
2023-04-18T11:56:29.314Z,103019.88
2023-04-18T11:58:56.342Z,103017.22
2023-04-18T12:01:25.213Z,103016.25
2023-04-18T12:04:08.150Z,103025.97
2023-04-18T12:06:52.542Z,103028.63
2023-04-18T12:09:21.314Z,103030.44
2023-04-18T12:12:02.819Z,103016.97
2023-04-18T12:14:30.433Z,103021.34
2023-04-18T12:16:57.067Z,103023.16
2023-04-18T12:19:28.200Z,103021.34
2023-04-18T12:22:05.238Z,103024.00
2023-04-18T12:24:32.612Z,103028.28
2023-04-18T12:26:59.573Z,103025.63
2023-04-18T12:29:28.340Z,103011.41
2023-04-18T12:31:55.371Z,103021.13
2023-04-18T12:34:21.933Z,103019.31
2023-04-18T12:36:48.503Z,103020.16
2023-04-18T12:39:15.093Z,103015.69
2023-04-18T12:41:41.636Z,103008.53
2023-04-18T12:44:08.224Z,103017.41
2023-04-18T12:46:34.870Z,103004.06
2023-04-18T12:49:01.557Z,103009.28
2023-04-18T12:51:28.100Z,103013.75
2023-04-18T12:53:54.704Z,103005.75
2023-04-18T12:56:21.552Z,103010.13
2023-04-18T12:58:48.108Z,102997.66
2023-04-18T13:01:15.270Z,102995.09
2023-04-18T13:03:42.113Z,102995.81
2023-04-18T13:06:09.084Z,102996.78
2023-04-18T13:08:36.025Z,103003.84
2023-04-18T13:11:02.585Z,103010.03
2023-04-18T13:13:29.161Z,103002.03
2023-04-18T13:15:55.694Z,102999.25
2023-04-18T13:18:22.208Z,103011.63
2023-04-18T13:20:49.673Z,103006.28
2023-04-18T13:23:16.227Z,103000.94
2023-04-18T13:25:42.780Z,102999.97
2023-04-18T13:28:09.354Z,102998.28
2023-04-18T13:30:36.018Z,102991.00
2023-04-18T13:33:02.685Z,102993.66
2023-04-18T13:35:29.277Z,102994.41
2023-04-18T13:37:56.107Z,102983.84
2023-04-18T13:40:22.731Z,102992.59
2023-04-18T13:42:49.249Z,103003.16
2023-04-18T13:45:15.919Z,102998.66
2023-04-18T13:47:42.535Z,102994.19
2023-04-18T13:50:09.585Z,102992.38
2023-04-18T13:52:36.436Z,102984.25
2023-04-18T13:55:03.852Z,102988.63
2023-04-18T13:57:32.317Z,102993.13
2023-04-18T13:59:58.900Z,102991.19
2023-04-18T14:02:25.692Z,102990.34
2023-04-18T14:04:54.286Z,102986.72
2023-04-18T14:07:20.886Z,102973.38
2023-04-18T14:09:52.110Z,102980.25
2023-04-18T14:12:20.349Z,102974.94
2023-04-18T14:14:47.070Z,102983.78
2023-04-18T14:17:13.634Z,102981.00
2023-04-18T14:19:40.274Z,102983.59
2023-04-18T14:22:07.863Z,102973.78
2023-04-18T14:24:37.441Z,102973.66
2023-04-18T14:27:04.102Z,102978.16
2023-04-18T14:29:30.929Z,102971.75
2023-04-18T14:31:57.597Z,102969.94
2023-04-18T14:34:24.186Z,102971.63
2023-04-18T14:36:50.705Z,102970.66
2023-04-18T14:39:17.293Z,102964.47
2023-04-18T14:41:43.899Z,102967.88
2023-04-18T14:44:10.678Z,102962.56
2023-04-18T14:46:37.205Z,102960.69
2023-04-18T14:49:03.741Z,102953.44
2023-04-18T14:51:31.198Z,102956.00
2023-04-18T14:53:57.797Z,102954.06
2023-04-18T14:56:24.381Z,102956.63
2023-04-18T14:58:51.086Z,102952.13
2023-04-18T15:01:17.657Z,102945.84
2023-04-18T15:03:44.980Z,102952.88
2023-04-18T15:06:11.647Z,102948.28
2023-04-18T15:08:38.406Z,102941.97
2023-04-18T15:11:08.415Z,102937.34
2023-04-18T15:13:34.993Z,102940.88
2023-04-18T15:16:01.819Z,102940.63
2023-04-18T15:18:28.813Z,102940.63
2023-04-18T15:20:56.977Z,102937.13
2023-04-18T15:23:23.694Z,102936.91
2023-04-18T15:25:50.253Z,102935.94
2023-04-18T15:28:18.237Z,102928.78
2023-04-18T15:30:44.893Z,102930.47
2023-04-18T15:33:13.362Z,102932.19
2023-04-18T15:35:40.337Z,102932.91
2023-04-18T15:38:06.918Z,102919.56
2023-04-18T15:40:36.142Z,102925.63
2023-04-18T15:43:02.761Z,102923.69
2023-04-18T15:45:29.359Z,102922.72
2023-04-18T15:47:55.939Z,102919.09
2023-04-18T15:50:26.083Z,102915.44
2023-04-18T15:52:52.669Z,102920.66
2023-04-18T15:55:19.260Z,102906.47
2023-04-18T15:57:46.383Z,102919.59
2023-04-18T16:00:16.620Z,102923.13
2023-04-18T16:02:44.613Z,102925.78
2023-04-18T16:05:12.630Z,102922.16
2023-04-18T16:07:40.270Z,102919.34
2023-04-18T16:10:12.688Z,102909.50
2023-04-18T16:12:40.280Z,102921.03
2023-04-18T16:15:09.403Z,102925.53
2023-04-18T16:17:37.002Z,102925.41
2023-04-18T16:20:04.371Z,102914.72
2023-04-18T16:22:31.050Z,102920.06
2023-04-18T16:24:57.641Z,102920.91
2023-04-18T16:27:24.204Z,102913.66
2023-04-18T16:29:53.814Z,102920.69
2023-04-18T16:32:20.933Z,102918.75
2023-04-18T16:34:47.589Z,102918.75
2023-04-18T16:37:14.201Z,102920.47
2023-04-18T16:39:40.741Z,102915.13
2023-04-18T16:42:07.296Z,102914.16
2023-04-18T16:44:33.891Z,102922.06
2023-04-18T16:47:00.837Z,102929.94
2023-04-18T16:49:27.594Z,102925.44
2023-04-18T16:51:54.106Z,102928.97
2023-04-18T16:54:20.740Z,102921.78
2023-04-18T16:56:47.485Z,102912.94
2023-04-18T16:59:14.297Z,102916.44
2023-04-18T17:01:40.922Z,102920.81
2023-04-18T17:04:07.557Z,102911.09
2023-04-18T17:06:34.327Z,102908.53
2023-04-18T17:09:00.932Z,102906.03
2023-04-18T17:11:27.933Z,102908.69
2023-04-18T17:13:54.483Z,102906.03
2023-04-18T17:16:21.157Z,102911.38
2023-04-18T17:18:47.733Z,102909.53
2023-04-18T17:21:14.344Z,102912.22
2023-04-18T17:23:42.512Z,102916.72
2023-04-18T17:26:09.556Z,102910.50
2023-04-18T17:28:36.512Z,102910.50
2023-04-18T17:31:03.769Z,102909.66
2023-04-18T17:33:31.005Z,102918.53
2023-04-18T17:35:58.052Z,102930.94
2023-04-18T17:38:24.723Z,102926.56
2023-04-18T17:41:02.336Z,102923.88
2023-04-18T17:43:29.083Z,102917.69
2023-04-18T17:45:56.867Z,102915.97
2023-04-18T17:48:23.423Z,102921.44
2023-04-18T17:50:50.022Z,102924.09
2023-04-18T17:53:17.558Z,102924.09
2023-04-18T17:55:45.169Z,102922.41
2023-04-18T17:58:11.774Z,102928.72
2023-04-18T18:00:38.388Z,102930.53
2023-04-18T18:03:05.223Z,102934.91
2023-04-18T18:05:31.940Z,102928.72
2023-04-18T18:08:01.049Z,102934.06
2023-04-18T18:10:28.073Z,102937.69
2023-04-18T18:12:54.637Z,102940.38
2023-04-18T18:15:21.291Z,102936.97
2023-04-18T18:17:49.716Z,102946.69
2023-04-18T18:20:17.214Z,102947.66
2023-04-18T18:22:44.402Z,102941.44
2023-04-18T18:25:11.108Z,102949.47
2023-04-18T18:27:37.820Z,102948.59
2023-04-18T18:30:05.163Z,102948.59
2023-04-18T18:32:31.736Z,102951.38
2023-04-18T18:34:58.487Z,102957.59
2023-04-18T18:37:26.079Z,102957.59
2023-04-18T18:39:55.388Z,102956.75
2023-04-18T18:42:22.432Z,102963.91
2023-04-18T18:44:48.970Z,102961.38
2023-04-18T18:47:17.420Z,102960.53
2023-04-18T18:49:43.979Z,102961.50
2023-04-18T18:52:10.796Z,102966.81
2023-04-18T18:54:37.413Z,102966.81
2023-04-18T18:57:04.099Z,102972.16
2023-04-18T18:59:30.918Z,102973.13
2023-04-18T19:01:57.558Z,102981.16
2023-04-18T19:04:24.415Z,102985.63
2023-04-18T19:06:51.300Z,102990.13
2023-04-18T19:09:17.904Z,102979.66
2023-04-18T19:11:44.472Z,102993.78
2023-04-18T19:14:11.036Z,103002.75
2023-04-18T19:16:37.781Z,102997.41
2023-04-18T19:19:04.546Z,103003.72
2023-04-18T19:21:31.403Z,103003.72
2023-04-18T19:23:58.047Z,103003.81
2023-04-18T19:26:24.573Z,103014.50
2023-04-18T19:28:51.226Z,103013.66
2023-04-18T19:31:17.787Z,103020.81
2023-04-18T19:33:44.379Z,103014.63
2023-04-18T19:36:11.181Z,103019.09
2023-04-18T19:38:37.741Z,103021.78
2023-04-18T19:41:04.298Z,103024.56
2023-04-18T19:43:30.838Z,103021.19
2023-04-18T19:45:57.702Z,103025.56
2023-04-18T19:48:24.309Z,103025.66
2023-04-18T19:50:51.141Z,103031.00
2023-04-18T19:53:19.017Z,103019.47
2023-04-18T19:55:46.176Z,103027.59
2023-04-18T19:58:33.104Z,103037.44
2023-04-18T20:00:59.719Z,103025.03
2023-04-18T20:03:26.487Z,103035.72
2023-04-18T20:05:53.172Z,103033.06
2023-04-18T20:08:19.900Z,103032.31
2023-04-18T20:10:46.432Z,103035.84
2023-04-18T20:13:12.970Z,103034.97
2023-04-18T20:15:39.681Z,103035.94
2023-04-18T20:18:06.685Z,103036.91
2023-04-18T20:20:33.360Z,103039.56
2023-04-18T20:22:59.952Z,103039.69
2023-04-18T20:25:26.601Z,103048.56
2023-04-18T20:27:53.137Z,103046.72
2023-04-18T20:30:21.194Z,103044.16
2023-04-18T20:32:47.869Z,103051.59
2023-04-18T20:35:14.600Z,103051.69
2023-04-18T20:37:41.414Z,103055.44
2023-04-18T20:40:08.935Z,103054.78
2023-04-18T20:42:36.722Z,103058.53
2023-04-18T20:45:03.913Z,103050.78
2023-04-18T20:47:30.499Z,103050.88
2023-04-18T20:49:57.036Z,103045.75
2023-04-18T20:52:23.566Z,103051.19
2023-04-18T20:54:50.297Z,103061.09
2023-04-18T20:57:16.823Z,103054.16
2023-04-18T20:59:43.386Z,103059.63
2023-04-18T21:02:10.323Z,103067.75
2023-04-18T21:04:37.287Z,103064.34
2023-04-18T21:07:04.007Z,103066.25
2023-04-18T21:09:36.282Z,103061.88
2023-04-18T21:12:04.058Z,103065.63
2023-04-18T21:14:30.611Z,103064.88
2023-04-18T21:16:57.497Z,103064.00
2023-04-18T21:19:24.583Z,103067.78
2023-04-18T21:21:51.242Z,103071.41
2023-04-18T21:24:18.046Z,103069.81
2023-04-18T21:26:44.655Z,103072.38
2023-04-18T21:29:11.213Z,103069.69
2023-04-18T21:31:37.855Z,103076.22
2023-04-18T21:34:05.470Z,103079.72
2023-04-18T21:36:32.533Z,103078.97
2023-04-18T21:39:00.743Z,103072.91
2023-04-18T21:41:27.631Z,103070.34
2023-04-18T21:43:54.317Z,103078.47
2023-04-18T21:46:23.792Z,103082.97
2023-04-18T21:48:50.369Z,103076.88
2023-04-18T21:51:17.330Z,103076.00
2023-04-18T21:53:43.907Z,103076.13
2023-04-18T21:56:11.021Z,103073.56
2023-04-18T21:58:37.683Z,103071.00
2023-04-18T22:01:04.381Z,103078.03
2023-04-18T22:03:31.704Z,103067.47
2023-04-18T22:05:58.900Z,103076.44
2023-04-18T22:08:26.307Z,103079.97
2023-04-18T22:10:54.942Z,103067.69
2023-04-18T22:13:25.984Z,103063.31
2023-04-18T22:15:52.565Z,103062.34
2023-04-18T22:18:19.312Z,103063.31
2023-04-18T22:20:46.928Z,103065.16
2023-04-18T22:23:14.375Z,103069.72
2023-04-18T22:25:40.999Z,103067.16
2023-04-18T22:28:07.783Z,103068.13
2023-04-18T22:30:34.454Z,103062.91
2023-04-18T22:33:01.185Z,103074.53
2023-04-18T22:35:27.937Z,103065.66
2023-04-18T22:37:55.909Z,103069.28
2023-04-18T22:40:22.887Z,103067.59
2023-04-18T22:42:51.864Z,103061.50
2023-04-18T22:45:19.435Z,103070.47
2023-04-18T22:47:46.766Z,103070.47
2023-04-18T22:50:14.056Z,103065.97
2023-04-18T22:52:41.192Z,103080.16
2023-04-18T22:55:09.021Z,103076.78
2023-04-18T22:57:35.691Z,103079.56
2023-04-18T23:00:02.540Z,103087.75
2023-04-18T23:02:29.247Z,103081.66
2023-04-18T23:04:58.369Z,103080.81
2023-04-18T23:07:25.091Z,103083.59
2023-04-18T23:09:51.636Z,103082.84
2023-04-18T23:12:18.192Z,103082.84
2023-04-18T23:14:44.719Z,103084.78
2023-04-18T23:17:11.288Z,103092.78
2023-04-18T23:19:38.701Z,103092.78
2023-04-18T23:22:05.261Z,103094.59
2023-04-18T23:24:32.063Z,103085.09
2023-04-18T23:26:58.622Z,103084.13
2023-04-18T23:29:25.262Z,103089.47
2023-04-18T23:31:51.895Z,103090.41
2023-04-18T23:34:18.450Z,103098.53
2023-04-18T23:36:45.150Z,103086.16
2023-04-18T23:39:11.854Z,103096.06
2023-04-18T23:41:38.461Z,103097.00
2023-04-18T23:44:05.681Z,103089.13
2023-04-18T23:46:32.978Z,103087.53
2023-04-18T23:49:00.891Z,103094.69
2023-04-18T23:51:28.013Z,103084.97
2023-04-18T23:53:54.563Z,103086.78
2023-04-18T23:56:21.799Z,103079.84
2023-04-18T23:58:48.362Z,103077.06
